sensor_id;sensor_type;location;lat;lon;timestamp;P1;durP1;ratioP1;P2;durP2;ratioP2
49458;SDS011;35354;51.296;16.924;2022-07-03T00:00:22;3.47;;;3.17;;
49458;SDS011;35354;51.296;16.924;2022-07-03T00:02:48;6.88;;;3.72;;
49458;SDS011;35354;51.296;16.924;2022-07-03T00:05:13;6.65;;;3.72;;
49458;SDS011;35354;51.296;16.924;2022-07-03T00:07:39;5.30;;;3.60;;
49458;SDS011;35354;51.296;16.924;2022-07-03T00:10:04;5.05;;;3.72;;
49458;SDS011;35354;51.296;16.924;2022-07-03T00:12:30;4.32;;;3.30;;
49458;SDS011;35354;51.296;16.924;2022-07-03T00:14:56;4.15;;;3.63;;
49458;SDS011;35354;51.296;16.924;2022-07-03T00:17:22;4.70;;;3.50;;
49458;SDS011;35354;51.296;16.924;2022-07-03T00:19:47;4.13;;;3.53;;
49458;SDS011;35354;51.296;16.924;2022-07-03T00:22:13;3.80;;;3.13;;
49458;SDS011;35354;51.296;16.924;2022-07-03T00:24:49;4.57;;;3.10;;
49458;SDS011;35354;51.296;16.924;2022-07-03T00:27:17;4.47;;;3.63;;
49458;SDS011;35354;51.296;16.924;2022-07-03T00:29:44;6.57;;;3.90;;
49458;SDS011;35354;51.296;16.924;2022-07-03T00:32:12;4.82;;;3.78;;
49458;SDS011;35354;51.296;16.924;2022-07-03T00:34:39;4.10;;;3.10;;
49458;SDS011;35354;51.296;16.924;2022-07-03T00:37:07;6.55;;;3.67;;
49458;SDS011;35354;51.296;16.924;2022-07-03T00:39:35;4.05;;;3.58;;
49458;SDS011;35354;51.296;16.924;2022-07-03T00:42:03;3.47;;;3.17;;
49458;SDS011;35354;51.296;16.924;2022-07-03T00:44:30;5.45;;;3.70;;
49458;SDS011;35354;51.296;16.924;2022-07-03T00:46:58;4.22;;;3.50;;
49458;SDS011;35354;51.296;16.924;2022-07-03T00:49:24;4.97;;;3.28;;
49458;SDS011;35354;51.296;16.924;2022-07-03T00:51:51;3.90;;;3.15;;
49458;SDS011;35354;51.296;16.924;2022-07-03T00:54:17;3.83;;;3.15;;
49458;SDS011;35354;51.296;16.924;2022-07-03T00:56:49;6.63;;;3.90;;
49458;SDS011;35354;51.296;16.924;2022-07-03T00:59:16;4.25;;;3.65;;
49458;SDS011;35354;51.296;16.924;2022-07-03T01:01:42;4.00;;;2.92;;
49458;SDS011;35354;51.296;16.924;2022-07-03T01:06:51;4.35;;;3.67;;
49458;SDS011;35354;51.296;16.924;2022-07-03T01:09:37;5.00;;;3.50;;
49458;SDS011;35354;51.296;16.924;2022-07-03T01:12:07;4.88;;;3.53;;
49458;SDS011;35354;51.296;16.924;2022-07-03T01:15:11;4.88;;;3.00;;
49458;SDS011;35354;51.296;16.924;2022-07-03T01:17:39;3.80;;;3.35;;
49458;SDS011;35354;51.296;16.924;2022-07-03T01:20:13;6.00;;;3.65;;
49458;SDS011;35354;51.296;16.924;2022-07-03T01:22:48;3.75;;;2.90;;
49458;SDS011;35354;51.296;16.924;2022-07-03T01:25:37;5.18;;;3.45;;
49458;SDS011;35354;51.296;16.924;2022-07-03T01:30:44;5.38;;;3.22;;
49458;SDS011;35354;51.296;16.924;2022-07-03T01:33:20;3.70;;;3.40;;
49458;SDS011;35354;51.296;16.924;2022-07-03T01:38:34;4.22;;;3.28;;
49458;SDS011;35354;51.296;16.924;2022-07-03T01:41:06;4.88;;;3.50;;
49458;SDS011;35354;51.296;16.924;2022-07-03T01:43:35;3.47;;;3.17;;
49458;SDS011;35354;51.296;16.924;2022-07-03T01:46:03;4.47;;;3.10;;
49458;SDS011;35354;51.296;16.924;2022-07-03T01:48:30;4.20;;;3.17;;
49458;SDS011;35354;51.296;16.924;2022-07-03T01:50:57;4.55;;;3.15;;
49458;SDS011;35354;51.296;16.924;2022-07-03T01:53:24;3.70;;;3.40;;
49458;SDS011;35354;51.296;16.924;2022-07-03T01:55:55;4.80;;;3.55;;
49458;SDS011;35354;51.296;16.924;2022-07-03T01:58:22;5.23;;;3.57;;
49458;SDS011;35354;51.296;16.924;2022-07-03T02:00:54;4.30;;;3.90;;
49458;SDS011;35354;51.296;16.924;2022-07-03T02:03:28;5.17;;;3.10;;
49458;SDS011;35354;51.296;16.924;2022-07-03T02:06:05;6.32;;;4.13;;
49458;SDS011;35354;51.296;16.924;2022-07-03T02:11:27;4.55;;;3.80;;
49458;SDS011;35354;51.296;16.924;2022-07-03T02:16:19;4.50;;;3.30;;
49458;SDS011;35354;51.296;16.924;2022-07-03T02:18:50;5.53;;;4.30;;
49458;SDS011;35354;51.296;16.924;2022-07-03T02:21:19;4.20;;;3.78;;
49458;SDS011;35354;51.296;16.924;2022-07-03T02:26:19;4.70;;;3.70;;
49458;SDS011;35354;51.296;16.924;2022-07-03T02:31:19;4.57;;;3.67;;
49458;SDS011;35354;51.296;16.924;2022-07-03T02:33:49;5.53;;;3.83;;
49458;SDS011;35354;51.296;16.924;2022-07-03T02:36:20;4.53;;;3.72;;
49458;SDS011;35354;51.296;16.924;2022-07-03T02:38:48;4.53;;;3.33;;
49458;SDS011;35354;51.296;16.924;2022-07-03T02:41:23;3.97;;;3.63;;
49458;SDS011;35354;51.296;16.924;2022-07-03T02:47:03;4.32;;;3.95;;
49458;SDS011;35354;51.296;16.924;2022-07-03T02:57:47;5.88;;;4.65;;
49458;SDS011;35354;51.296;16.924;2022-07-03T03:00:22;3.88;;;3.42;;
49458;SDS011;35354;51.296;16.924;2022-07-03T03:05:15;4.35;;;3.80;;
49458;SDS011;35354;51.296;16.924;2022-07-03T03:10:25;3.55;;;3.25;;
49458;SDS011;35354;51.296;16.924;2022-07-03T03:15:58;3.63;;;3.17;;
49458;SDS011;35354;51.296;16.924;2022-07-03T03:18:29;4.03;;;3.58;;
49458;SDS011;35354;51.296;16.924;2022-07-03T03:20:58;4.28;;;3.53;;
49458;SDS011;35354;51.296;16.924;2022-07-03T03:25:59;5.95;;;4.40;;
49458;SDS011;35354;51.296;16.924;2022-07-03T03:28:24;4.05;;;3.65;;
49458;SDS011;35354;51.296;16.924;2022-07-03T03:30:50;3.95;;;3.65;;
49458;SDS011;35354;51.296;16.924;2022-07-03T03:33:16;4.30;;;3.90;;
49458;SDS011;35354;51.296;16.924;2022-07-03T03:35:42;3.63;;;3.33;;
49458;SDS011;35354;51.296;16.924;2022-07-03T03:38:08;4.55;;;3.67;;
49458;SDS011;35354;51.296;16.924;2022-07-03T03:40:33;5.95;;;3.60;;
49458;SDS011;35354;51.296;16.924;2022-07-03T03:43:00;4.00;;;3.53;;
49458;SDS011;35354;51.296;16.924;2022-07-03T03:45:26;5.53;;;3.70;;
49458;SDS011;35354;51.296;16.924;2022-07-03T03:47:53;4.97;;;3.80;;
49458;SDS011;35354;51.296;16.924;2022-07-03T03:50:18;4.20;;;3.80;;
49458;SDS011;35354;51.296;16.924;2022-07-03T03:52:44;5.90;;;4.57;;
49458;SDS011;35354;51.296;16.924;2022-07-03T03:55:10;4.03;;;3.63;;
49458;SDS011;35354;51.296;16.924;2022-07-03T03:57:35;7.85;;;4.40;;
49458;SDS011;35354;51.296;16.924;2022-07-03T04:00:01;4.35;;;3.95;;
49458;SDS011;35354;51.296;16.924;2022-07-03T04:02:28;6.15;;;4.38;;
49458;SDS011;35354;51.296;16.924;2022-07-03T04:04:53;4.75;;;4.35;;
49458;SDS011;35354;51.296;16.924;2022-07-03T04:07:18;11.07;;;5.47;;
49458;SDS011;35354;51.296;16.924;2022-07-03T04:09:44;6.07;;;4.75;;
49458;SDS011;35354;51.296;16.924;2022-07-03T04:12:10;9.85;;;5.32;;
49458;SDS011;35354;51.296;16.924;2022-07-03T04:14:36;6.68;;;5.05;;
49458;SDS011;35354;51.296;16.924;2022-07-03T04:17:02;7.47;;;4.80;;
49458;SDS011;35354;51.296;16.924;2022-07-03T04:19:27;9.13;;;5.03;;
49458;SDS011;35354;51.296;16.924;2022-07-03T04:21:53;6.22;;;5.63;;
49458;SDS011;35354;51.296;16.924;2022-07-03T04:24:19;6.97;;;4.93;;
49458;SDS011;35354;51.296;16.924;2022-07-03T04:26:44;7.38;;;4.82;;
49458;SDS011;35354;51.296;16.924;2022-07-03T04:29:10;6.28;;;5.43;;
49458;SDS011;35354;51.296;16.924;2022-07-03T04:31:35;6.82;;;5.88;;
49458;SDS011;35354;51.296;16.924;2022-07-03T04:34:01;6.88;;;4.40;;
49458;SDS011;35354;51.296;16.924;2022-07-03T04:36:26;7.82;;;5.50;;
49458;SDS011;35354;51.296;16.924;2022-07-03T04:38:52;9.02;;;5.03;;
49458;SDS011;35354;51.296;16.924;2022-07-03T04:41:17;5.47;;;4.32;;
49458;SDS011;35354;51.296;16.924;2022-07-03T04:43:43;7.28;;;5.63;;
49458;SDS011;35354;51.296;16.924;2022-07-03T04:46:08;6.80;;;4.80;;
49458;SDS011;35354;51.296;16.924;2022-07-03T04:48:34;5.43;;;4.88;;
49458;SDS011;35354;51.296;16.924;2022-07-03T04:50:59;5.18;;;4.50;;
49458;SDS011;35354;51.296;16.924;2022-07-03T04:53:25;8.90;;;4.18;;
49458;SDS011;35354;51.296;16.924;2022-07-03T04:55:50;5.90;;;4.13;;
49458;SDS011;35354;51.296;16.924;2022-07-03T04:58:19;6.35;;;4.10;;
49458;SDS011;35354;51.296;16.924;2022-07-03T05:00:44;5.95;;;4.93;;
49458;SDS011;35354;51.296;16.924;2022-07-03T05:03:11;7.38;;;4.75;;
49458;SDS011;35354;51.296;16.924;2022-07-03T05:05:37;7.75;;;4.57;;
49458;SDS011;35354;51.296;16.924;2022-07-03T05:08:02;7.07;;;5.30;;
49458;SDS011;35354;51.296;16.924;2022-07-03T05:10:28;4.28;;;3.88;;
49458;SDS011;35354;51.296;16.924;2022-07-03T05:12:53;4.20;;;3.80;;
49458;SDS011;35354;51.296;16.924;2022-07-03T05:15:19;3.80;;;3.45;;
49458;SDS011;35354;51.296;16.924;2022-07-03T05:17:45;4.80;;;3.97;;
49458;SDS011;35354;51.296;16.924;2022-07-03T05:20:10;4.13;;;3.67;;
49458;SDS011;35354;51.296;16.924;2022-07-03T05:25:25;5.53;;;3.90;;
49458;SDS011;35354;51.296;16.924;2022-07-03T05:27:52;5.25;;;3.30;;
49458;SDS011;35354;51.296;16.924;2022-07-03T05:30:18;4.97;;;3.83;;
49458;SDS011;35354;51.296;16.924;2022-07-03T05:32:45;4.50;;;2.90;;
49458;SDS011;35354;51.296;16.924;2022-07-03T05:35:11;4.45;;;3.33;;
49458;SDS011;35354;51.296;16.924;2022-07-03T05:37:36;5.57;;;2.85;;
49458;SDS011;35354;51.296;16.924;2022-07-03T05:40:03;5.47;;;4.20;;
49458;SDS011;35354;51.296;16.924;2022-07-03T05:42:29;3.30;;;3.00;;
49458;SDS011;35354;51.296;16.924;2022-07-03T05:44:54;7.65;;;4.40;;
49458;SDS011;35354;51.296;16.924;2022-07-03T05:47:20;3.50;;;3.20;;
49458;SDS011;35354;51.296;16.924;2022-07-03T05:49:45;4.00;;;3.30;;
49458;SDS011;35354;51.296;16.924;2022-07-03T05:52:11;4.50;;;3.83;;
49458;SDS011;35354;51.296;16.924;2022-07-03T05:54:36;4.00;;;3.30;;
49458;SDS011;35354;51.296;16.924;2022-07-03T05:57:01;3.80;;;3.50;;
49458;SDS011;35354;51.296;16.924;2022-07-03T05:59:27;4.00;;;3.60;;
49458;SDS011;35354;51.296;16.924;2022-07-03T06:01:52;4.13;;;3.80;;
49458;SDS011;35354;51.296;16.924;2022-07-03T06:04:18;5.70;;;4.70;;
49458;SDS011;35354;51.296;16.924;2022-07-03T06:06:43;5.70;;;3.67;;
49458;SDS011;35354;51.296;16.924;2022-07-03T06:09:09;6.30;;;4.72;;
49458;SDS011;35354;51.296;16.924;2022-07-03T06:11:34;5.18;;;4.68;;
49458;SDS011;35354;51.296;16.924;2022-07-03T06:13:59;7.10;;;5.50;;
49458;SDS011;35354;51.296;16.924;2022-07-03T06:16:25;5.75;;;5.18;;
49458;SDS011;35354;51.296;16.924;2022-07-03T06:18:50;6.78;;;4.13;;
49458;SDS011;35354;51.296;16.924;2022-07-03T06:21:16;7.88;;;5.13;;
49458;SDS011;35354;51.296;16.924;2022-07-03T06:23:41;5.63;;;4.97;;
49458;SDS011;35354;51.296;16.924;2022-07-03T06:26:07;5.20;;;4.65;;
49458;SDS011;35354;51.296;16.924;2022-07-03T06:28:32;6.40;;;5.35;;
49458;SDS011;35354;51.296;16.924;2022-07-03T06:30:57;6.90;;;4.78;;
49458;SDS011;35354;51.296;16.924;2022-07-03T06:33:23;5.80;;;4.72;;
49458;SDS011;35354;51.296;16.924;2022-07-03T06:35:48;4.40;;;4.00;;
49458;SDS011;35354;51.296;16.924;2022-07-03T06:38:14;7.93;;;4.72;;
49458;SDS011;35354;51.296;16.924;2022-07-03T06:40:39;4.30;;;3.90;;
49458;SDS011;35354;51.296;16.924;2022-07-03T06:43:05;4.10;;;3.50;;
49458;SDS011;35354;51.296;16.924;2022-07-03T06:45:30;5.10;;;3.53;;
49458;SDS011;35354;51.296;16.924;2022-07-03T06:47:56;3.72;;;3.40;;
49458;SDS011;35354;51.296;16.924;2022-07-03T06:50:21;3.75;;;2.70;;
49458;SDS011;35354;51.296;16.924;2022-07-03T06:52:47;3.63;;;2.80;;
49458;SDS011;35354;51.296;16.924;2022-07-03T06:55:12;3.50;;;2.83;;
49458;SDS011;35354;51.296;16.924;2022-07-03T06:57:38;3.38;;;2.50;;
49458;SDS011;35354;51.296;16.924;2022-07-03T07:00:03;5.30;;;3.33;;
49458;SDS011;35354;51.296;16.924;2022-07-03T07:02:29;2.63;;;2.40;;
49458;SDS011;35354;51.296;16.924;2022-07-03T07:04:55;4.68;;;3.20;;
49458;SDS011;35354;51.296;16.924;2022-07-03T07:07:20;3.78;;;2.92;;
49458;SDS011;35354;51.296;16.924;2022-07-03T07:09:46;3.30;;;2.88;;
49458;SDS011;35354;51.296;16.924;2022-07-03T07:12:11;3.28;;;2.90;;
49458;SDS011;35354;51.296;16.924;2022-07-03T07:14:36;3.50;;;3.20;;
49458;SDS011;35354;51.296;16.924;2022-07-03T07:17:02;2.97;;;2.50;;
49458;SDS011;35354;51.296;16.924;2022-07-03T07:19:28;4.90;;;2.60;;
49458;SDS011;35354;51.296;16.924;2022-07-03T07:21:53;2.90;;;2.42;;
49458;SDS011;35354;51.296;16.924;2022-07-03T07:24:19;5.63;;;2.60;;
49458;SDS011;35354;51.296;16.924;2022-07-03T07:26:44;4.32;;;3.45;;
49458;SDS011;35354;51.296;16.924;2022-07-03T07:29:10;2.72;;;2.53;;
49458;SDS011;35354;51.296;16.924;2022-07-03T07:31:35;2.53;;;2.25;;
49458;SDS011;35354;51.296;16.924;2022-07-03T07:34:00;2.65;;;2.45;;
49458;SDS011;35354;51.296;16.924;2022-07-03T07:36:29;2.87;;;2.57;;
49458;SDS011;35354;51.296;16.924;2022-07-03T07:38:55;2.88;;;2.50;;
49458;SDS011;35354;51.296;16.924;2022-07-03T07:41:20;2.30;;;2.10;;
49458;SDS011;35354;51.296;16.924;2022-07-03T07:43:45;2.45;;;2.25;;
49458;SDS011;35354;51.296;16.924;2022-07-03T07:46:11;2.83;;;2.63;;
49458;SDS011;35354;51.296;16.924;2022-07-03T07:48:36;2.60;;;2.40;;
49458;SDS011;35354;51.296;16.924;2022-07-03T07:51:02;4.82;;;3.05;;
49458;SDS011;35354;51.296;16.924;2022-07-03T07:53:27;2.58;;;2.38;;
49458;SDS011;35354;51.296;16.924;2022-07-03T07:55:53;2.70;;;2.50;;
49458;SDS011;35354;51.296;16.924;2022-07-03T07:58:18;3.00;;;2.80;;
49458;SDS011;35354;51.296;16.924;2022-07-03T08:00:44;2.72;;;2.53;;
49458;SDS011;35354;51.296;16.924;2022-07-03T08:03:29;2.58;;;2.38;;
49458;SDS011;35354;51.296;16.924;2022-07-03T08:06:13;3.67;;;2.47;;
49458;SDS011;35354;51.296;16.924;2022-07-03T08:08:39;1.85;;;1.75;;
49458;SDS011;35354;51.296;16.924;2022-07-03T08:11:04;2.75;;;2.15;;
49458;SDS011;35354;51.296;16.924;2022-07-03T08:13:30;2.85;;;2.25;;
49458;SDS011;35354;51.296;16.924;2022-07-03T08:15:55;2.83;;;2.35;;
49458;SDS011;35354;51.296;16.924;2022-07-03T08:18:20;7.15;;;2.60;;
49458;SDS011;35354;51.296;16.924;2022-07-03T08:20:46;2.53;;;2.33;;
49458;SDS011;35354;51.296;16.924;2022-07-03T08:23:11;2.30;;;2.10;;
49458;SDS011;35354;51.296;16.924;2022-07-03T08:25:37;2.80;;;2.60;;
49458;SDS011;35354;51.296;16.924;2022-07-03T08:28:02;4.72;;;2.75;;
49458;SDS011;35354;51.296;16.924;2022-07-03T08:30:28;2.63;;;2.42;;
49458;SDS011;35354;51.296;16.924;2022-07-03T08:32:54;2.63;;;2.10;;
49458;SDS011;35354;51.296;16.924;2022-07-03T08:35:21;2.55;;;2.35;;
49458;SDS011;35354;51.296;16.924;2022-07-03T08:37:47;3.15;;;2.53;;
49458;SDS011;35354;51.296;16.924;2022-07-03T08:40:14;2.35;;;2.15;;
49458;SDS011;35354;51.296;16.924;2022-07-03T08:42:47;2.33;;;2.10;;
49458;SDS011;35354;51.296;16.924;2022-07-03T08:45:14;5.05;;;2.92;;
49458;SDS011;35354;51.296;16.924;2022-07-03T08:47:44;3.72;;;2.60;;
49458;SDS011;35354;51.296;16.924;2022-07-03T08:50:11;5.27;;;2.60;;
49458;SDS011;35354;51.296;16.924;2022-07-03T08:52:38;2.70;;;2.10;;
49458;SDS011;35354;51.296;16.924;2022-07-03T08:55:04;5.50;;;2.65;;
49458;SDS011;35354;51.296;16.924;2022-07-03T08:57:30;4.32;;;2.70;;
49458;SDS011;35354;51.296;16.924;2022-07-03T09:00:00;4.70;;;2.60;;
49458;SDS011;35354;51.296;16.924;2022-07-03T09:02:28;2.97;;;2.72;;
49458;SDS011;35354;51.296;16.924;2022-07-03T09:04:56;3.17;;;2.88;;
49458;SDS011;35354;51.296;16.924;2022-07-03T09:07:23;3.17;;;2.90;;
49458;SDS011;35354;51.296;16.924;2022-07-03T09:09:50;2.83;;;2.63;;
49458;SDS011;35354;51.296;16.924;2022-07-03T09:12:16;3.78;;;3.42;;
49458;SDS011;35354;51.296;16.924;2022-07-03T09:14:42;2.67;;;2.47;;
49458;SDS011;35354;51.296;16.924;2022-07-03T09:17:07;2.83;;;2.50;;
49458;SDS011;35354;51.296;16.924;2022-07-03T09:22:18;2.88;;;2.67;;
49458;SDS011;35354;51.296;16.924;2022-07-03T09:24:44;2.45;;;2.17;;
49458;SDS011;35354;51.296;16.924;2022-07-03T09:27:10;3.30;;;2.90;;
49458;SDS011;35354;51.296;16.924;2022-07-03T09:29:49;2.90;;;2.63;;
49458;SDS011;35354;51.296;16.924;2022-07-03T09:32:16;5.30;;;3.00;;
49458;SDS011;35354;51.296;16.924;2022-07-03T09:34:41;2.60;;;2.40;;
49458;SDS011;35354;51.296;16.924;2022-07-03T09:37:06;3.60;;;2.80;;
49458;SDS011;35354;51.296;16.924;2022-07-03T09:39:32;7.45;;;2.92;;
49458;SDS011;35354;51.296;16.924;2022-07-03T09:44:43;4.82;;;2.97;;
49458;SDS011;35354;51.296;16.924;2022-07-03T09:47:22;6.25;;;3.00;;
49458;SDS011;35354;51.296;16.924;2022-07-03T09:49:53;2.83;;;2.47;;
49458;SDS011;35354;51.296;16.924;2022-07-03T09:54:58;2.28;;;2.08;;
49458;SDS011;35354;51.296;16.924;2022-07-03T09:57:26;2.95;;;2.33;;
49458;SDS011;35354;51.296;16.924;2022-07-03T10:00:26;2.80;;;2.20;;
49458;SDS011;35354;51.296;16.924;2022-07-03T10:02:53;3.53;;;2.60;;
49458;SDS011;35354;51.296;16.924;2022-07-03T10:05:21;3.30;;;2.45;;
49458;SDS011;35354;51.296;16.924;2022-07-03T10:10:28;2.67;;;2.22;;
49458;SDS011;35354;51.296;16.924;2022-07-03T10:12:55;2.42;;;2.22;;
49458;SDS011;35354;51.296;16.924;2022-07-03T10:15:21;2.05;;;1.95;;
49458;SDS011;35354;51.296;16.924;2022-07-03T10:17:49;2.22;;;1.80;;
49458;SDS011;35354;51.296;16.924;2022-07-03T10:22:54;2.20;;;2.00;;
49458;SDS011;35354;51.296;16.924;2022-07-03T10:25:20;2.78;;;2.22;;
49458;SDS011;35354;51.296;16.924;2022-07-03T10:27:46;2.40;;;2.20;;
49458;SDS011;35354;51.296;16.924;2022-07-03T10:30:16;2.40;;;2.20;;
49458;SDS011;35354;51.296;16.924;2022-07-03T10:32:45;2.03;;;1.92;;
49458;SDS011;35354;51.296;16.924;2022-07-03T10:35:13;3.25;;;2.00;;
49458;SDS011;35354;51.296;16.924;2022-07-03T10:37:48;2.03;;;1.90;;
49458;SDS011;35354;51.296;16.924;2022-07-03T10:40:25;2.08;;;1.98;;
49458;SDS011;35354;51.296;16.924;2022-07-03T10:43:13;2.10;;;2.00;;
49458;SDS011;35354;51.296;16.924;2022-07-03T10:46:11;1.92;;;1.83;;
49458;SDS011;35354;51.296;16.924;2022-07-03T10:51:22;2.20;;;2.10;;
49458;SDS011;35354;51.296;16.924;2022-07-03T10:53:48;2.15;;;1.70;;
49458;SDS011;35354;51.296;16.924;2022-07-03T10:56:14;2.80;;;2.10;;
49458;SDS011;35354;51.296;16.924;2022-07-03T10:58:56;2.40;;;2.20;;
49458;SDS011;35354;51.296;16.924;2022-07-03T11:03:57;1.85;;;1.70;;
49458;SDS011;35354;51.296;16.924;2022-07-03T11:09:21;1.83;;;1.73;;
49458;SDS011;35354;51.296;16.924;2022-07-03T11:11:47;1.80;;;1.70;;
49458;SDS011;35354;51.296;16.924;2022-07-03T11:14:25;3.30;;;2.10;;
49458;SDS011;35354;51.296;16.924;2022-07-03T11:19:44;2.90;;;1.95;;
49458;SDS011;35354;51.296;16.924;2022-07-03T11:25:47;2.13;;;1.92;;
49458;SDS011;35354;51.296;16.924;2022-07-03T11:33:44;1.90;;;1.80;;
49458;SDS011;35354;51.296;16.924;2022-07-03T11:38:42;2.33;;;2.13;;
49458;SDS011;35354;51.296;16.924;2022-07-03T11:41:17;2.20;;;2.00;;
49458;SDS011;35354;51.296;16.924;2022-07-03T11:43:46;2.22;;;1.90;;
49458;SDS011;35354;51.296;16.924;2022-07-03T11:46:16;4.45;;;2.20;;
49458;SDS011;35354;51.296;16.924;2022-07-03T11:48:43;2.20;;;2.00;;
49458;SDS011;35354;51.296;16.924;2022-07-03T11:51:08;3.55;;;2.08;;
49458;SDS011;35354;51.296;16.924;2022-07-03T11:53:35;2.10;;;1.88;;
49458;SDS011;35354;51.296;16.924;2022-07-03T11:56:09;2.20;;;2.00;;
49458;SDS011;35354;51.296;16.924;2022-07-03T12:04:10;3.03;;;1.80;;
49458;SDS011;35354;51.296;16.924;2022-07-03T12:06:46;2.10;;;1.95;;
49458;SDS011;35354;51.296;16.924;2022-07-03T12:09:21;2.38;;;1.98;;
49458;SDS011;35354;51.296;16.924;2022-07-03T12:12:01;5.63;;;3.80;;
49458;SDS011;35354;51.296;16.924;2022-07-03T12:14:51;3.20;;;2.90;;
49458;SDS011;35354;51.296;16.924;2022-07-03T12:17:21;2.28;;;2.10;;
49458;SDS011;35354;51.296;16.924;2022-07-03T12:19:51;1.83;;;1.70;;
49458;SDS011;35354;51.296;16.924;2022-07-03T12:24:57;2.30;;;2.10;;
49458;SDS011;35354;51.296;16.924;2022-07-03T12:27:29;3.15;;;2.30;;
49458;SDS011;35354;51.296;16.924;2022-07-03T12:29:55;2.80;;;1.98;;
49458;SDS011;35354;51.296;16.924;2022-07-03T12:32:21;3.38;;;2.90;;
49458;SDS011;35354;51.296;16.924;2022-07-03T12:34:47;2.60;;;2.40;;
49458;SDS011;35354;51.296;16.924;2022-07-03T12:37:12;3.80;;;3.33;;
49458;SDS011;35354;51.296;16.924;2022-07-03T12:39:44;4.38;;;3.50;;
49458;SDS011;35354;51.296;16.924;2022-07-03T12:42:16;3.83;;;3.20;;
49458;SDS011;35354;51.296;16.924;2022-07-03T12:44:42;2.65;;;2.40;;
49458;SDS011;35354;51.296;16.924;2022-07-03T12:47:18;3.72;;;2.67;;
49458;SDS011;35354;51.296;16.924;2022-07-03T12:49:44;2.40;;;2.20;;
49458;SDS011;35354;51.296;16.924;2022-07-03T12:52:11;3.05;;;2.42;;
49458;SDS011;35354;51.296;16.924;2022-07-03T12:54:37;3.45;;;3.03;;
49458;SDS011;35354;51.296;16.924;2022-07-03T13:02:35;2.33;;;2.13;;
49458;SDS011;35354;51.296;16.924;2022-07-03T13:05:13;2.50;;;2.10;;
49458;SDS011;35354;51.296;16.924;2022-07-03T13:07:39;2.17;;;2.00;;
49458;SDS011;35354;51.296;16.924;2022-07-03T13:10:06;2.55;;;2.35;;
49458;SDS011;35354;51.296;16.924;2022-07-03T13:12:33;2.60;;;2.40;;
49458;SDS011;35354;51.296;16.924;2022-07-03T13:14:59;2.20;;;2.10;;
49458;SDS011;35354;51.296;16.924;2022-07-03T13:20:33;2.70;;;2.50;;
49458;SDS011;35354;51.296;16.924;2022-07-03T13:23:00;2.78;;;2.58;;
49458;SDS011;35354;51.296;16.924;2022-07-03T13:25:30;3.03;;;2.10;;
49458;SDS011;35354;51.296;16.924;2022-07-03T13:28:07;2.97;;;2.47;;
49458;SDS011;35354;51.296;16.924;2022-07-03T13:30:40;2.60;;;2.40;;
49458;SDS011;35354;51.296;16.924;2022-07-03T13:33:07;2.58;;;2.38;;
49458;SDS011;35354;51.296;16.924;2022-07-03T13:35:35;3.50;;;3.13;;
49458;SDS011;35354;51.296;16.924;2022-07-03T13:38:03;3.15;;;2.85;;
49458;SDS011;35354;51.296;16.924;2022-07-03T13:40:29;2.50;;;2.30;;
49458;SDS011;35354;51.296;16.924;2022-07-03T13:42:55;3.00;;;2.50;;
49458;SDS011;35354;51.296;16.924;2022-07-03T13:45:21;2.33;;;2.13;;
49458;SDS011;35354;51.296;16.924;2022-07-03T13:47:47;2.67;;;2.47;;
49458;SDS011;35354;51.296;16.924;2022-07-03T13:50:13;2.35;;;2.15;;
49458;SDS011;35354;51.296;16.924;2022-07-03T13:52:39;2.83;;;2.13;;
49458;SDS011;35354;51.296;16.924;2022-07-03T13:55:05;4.47;;;2.53;;
49458;SDS011;35354;51.296;16.924;2022-07-03T13:57:31;3.38;;;2.55;;
49458;SDS011;35354;51.296;16.924;2022-07-03T13:59:58;2.80;;;2.60;;
49458;SDS011;35354;51.296;16.924;2022-07-03T14:02:24;3.50;;;3.20;;
49458;SDS011;35354;51.296;16.924;2022-07-03T14:04:50;5.57;;;2.92;;
49458;SDS011;35354;51.296;16.924;2022-07-03T14:07:16;2.92;;;2.60;;
49458;SDS011;35354;51.296;16.924;2022-07-03T14:09:42;2.65;;;2.40;;
49458;SDS011;35354;51.296;16.924;2022-07-03T14:12:09;2.67;;;2.47;;
49458;SDS011;35354;51.296;16.924;2022-07-03T14:14:35;3.22;;;2.92;;
49458;SDS011;35354;51.296;16.924;2022-07-03T14:17:01;3.03;;;2.72;;
49458;SDS011;35354;51.296;16.924;2022-07-03T14:19:27;2.95;;;2.47;;
49458;SDS011;35354;51.296;16.924;2022-07-03T14:21:52;2.97;;;2.58;;
49458;SDS011;35354;51.296;16.924;2022-07-03T14:24:18;4.07;;;3.13;;
49458;SDS011;35354;51.296;16.924;2022-07-03T14:26:43;2.78;;;2.58;;
49458;SDS011;35354;51.296;16.924;2022-07-03T14:29:27;3.67;;;3.38;;
49458;SDS011;35354;51.296;16.924;2022-07-03T14:32:11;3.00;;;2.80;;
49458;SDS011;35354;51.296;16.924;2022-07-03T14:34:57;2.78;;;2.58;;
49458;SDS011;35354;51.296;16.924;2022-07-03T14:37:28;2.67;;;2.47;;
49458;SDS011;35354;51.296;16.924;2022-07-03T14:39:59;3.35;;;3.00;;
49458;SDS011;35354;51.296;16.924;2022-07-03T14:42:26;3.30;;;2.88;;
49458;SDS011;35354;51.296;16.924;2022-07-03T14:44:51;3.58;;;3.03;;
49458;SDS011;35354;51.296;16.924;2022-07-03T14:47:17;3.67;;;2.80;;
49458;SDS011;35354;51.296;16.924;2022-07-03T14:49:43;2.90;;;2.70;;
49458;SDS011;35354;51.296;16.924;2022-07-03T14:52:09;3.22;;;2.92;;
49458;SDS011;35354;51.296;16.924;2022-07-03T14:54:35;4.32;;;3.20;;
49458;SDS011;35354;51.296;16.924;2022-07-03T14:57:01;3.55;;;3.22;;
49458;SDS011;35354;51.296;16.924;2022-07-03T15:02:42;3.67;;;3.38;;
49458;SDS011;35354;51.296;16.924;2022-07-03T15:05:38;3.25;;;3.00;;
49458;SDS011;35354;51.296;16.924;2022-07-03T15:08:14;3.80;;;3.50;;
49458;SDS011;35354;51.296;16.924;2022-07-03T15:11:05;3.50;;;3.20;;
49458;SDS011;35354;51.296;16.924;2022-07-03T15:13:33;3.03;;;2.75;;
49458;SDS011;35354;51.296;16.924;2022-07-03T15:16:00;4.10;;;3.50;;
49458;SDS011;35354;51.296;16.924;2022-07-03T15:18:27;4.25;;;3.20;;
49458;SDS011;35354;51.296;16.924;2022-07-03T15:20:53;3.15;;;2.63;;
49458;SDS011;35354;51.296;16.924;2022-07-03T15:23:20;5.03;;;3.45;;
49458;SDS011;35354;51.296;16.924;2022-07-03T15:25:47;4.55;;;3.78;;
49458;SDS011;35354;51.296;16.924;2022-07-03T15:28:15;4.45;;;4.05;;
49458;SDS011;35354;51.296;16.924;2022-07-03T15:30:52;3.80;;;3.50;;
49458;SDS011;35354;51.296;16.924;2022-07-03T15:33:20;3.80;;;3.47;;
49458;SDS011;35354;51.296;16.924;2022-07-03T15:35:54;3.25;;;2.95;;
49458;SDS011;35354;51.296;16.924;2022-07-03T15:38:27;3.47;;;3.17;;
49458;SDS011;35354;51.296;16.924;2022-07-03T15:41:02;3.30;;;3.00;;
49458;SDS011;35354;51.296;16.924;2022-07-03T15:49:34;3.50;;;3.20;;
49458;SDS011;35354;51.296;16.924;2022-07-03T15:54:57;4.07;;;3.67;;
49458;SDS011;35354;51.296;16.924;2022-07-03T15:57:31;3.80;;;3.50;;
49458;SDS011;35354;51.296;16.924;2022-07-03T16:00:19;4.57;;;3.30;;
49458;SDS011;35354;51.296;16.924;2022-07-03T16:05:42;3.47;;;3.17;;
49458;SDS011;35354;51.296;16.924;2022-07-03T16:08:11;3.63;;;3.33;;
49458;SDS011;35354;51.296;16.924;2022-07-03T16:10:41;3.28;;;3.08;;
49458;SDS011;35354;51.296;16.924;2022-07-03T16:13:07;3.45;;;3.00;;
49458;SDS011;35354;51.296;16.924;2022-07-03T16:15:34;3.58;;;3.00;;
49458;SDS011;35354;51.296;16.924;2022-07-03T16:18:04;3.40;;;3.10;;
49458;SDS011;35354;51.296;16.924;2022-07-03T16:20:31;3.47;;;3.17;;
49458;SDS011;35354;51.296;16.924;2022-07-03T16:23:04;3.47;;;3.17;;
49458;SDS011;35354;51.296;16.924;2022-07-03T16:25:32;3.42;;;3.10;;
49458;SDS011;35354;51.296;16.924;2022-07-03T16:28:00;3.83;;;3.30;;
49458;SDS011;35354;51.296;16.924;2022-07-03T16:30:27;3.03;;;2.83;;